createdAt,value
2022-12-17T00:02:02.300Z,102345.13
2022-12-17T00:04:22.175Z,102340.50
2022-12-17T00:06:42.243Z,102346.28
2022-12-17T00:09:02.044Z,102354.72
2022-12-17T00:11:21.999Z,102354.63
2022-12-17T00:13:41.953Z,102357.91
2022-12-17T00:16:02.028Z,102362.00
2022-12-17T00:18:26.302Z,102359.25
2022-12-17T00:20:46.245Z,102359.84
2022-12-17T00:23:06.008Z,102353.63
2022-12-17T00:25:26.301Z,102356.91
2022-12-17T00:27:46.210Z,102357.63
2022-12-17T00:30:06.161Z,102354.88
2022-12-17T00:32:28.119Z,102368.41
2022-12-17T00:34:47.958Z,102360.59
2022-12-17T00:37:22.423Z,102374.28
2022-12-17T00:39:42.315Z,102381.00
2022-12-17T00:42:02.270Z,102382.59
2022-12-17T00:44:22.618Z,102384.34
2022-12-17T00:46:42.586Z,102388.84
2022-12-17T00:49:03.356Z,102394.78
2022-12-17T00:51:23.881Z,102392.31
2022-12-17T00:53:43.699Z,102401.00
2022-12-17T00:56:03.627Z,102398.34
2022-12-17T00:58:23.536Z,102389.63
2022-12-17T01:00:43.418Z,102393.81
2022-12-17T01:03:03.573Z,102396.97
2022-12-17T01:05:24.665Z,102396.00
2022-12-17T01:07:44.420Z,102403.50
2022-12-17T01:10:04.377Z,102400.72
2022-12-17T01:12:24.727Z,102396.28
2022-12-17T01:14:44.993Z,102398.75
2022-12-17T01:17:05.272Z,102398.75
2022-12-17T01:19:25.043Z,102399.47
2022-12-17T01:21:44.789Z,102406.38
2022-12-17T01:24:04.592Z,102410.66
2022-12-17T01:26:24.796Z,102405.31
2022-12-17T01:28:45.045Z,102413.72
2022-12-17T01:31:04.958Z,102410.97
2022-12-17T01:33:27.771Z,102416.00
2022-12-17T01:35:47.601Z,102419.38
2022-12-17T01:38:07.537Z,102426.94
2022-12-17T01:40:28.166Z,102425.16
2022-12-17T01:42:59.585Z,102430.19
2022-12-17T01:45:21.340Z,102435.16
2022-12-17T01:47:41.870Z,102437.53
2022-12-17T01:50:01.690Z,102433.06
2022-12-17T01:52:22.008Z,102435.44
2022-12-17T01:54:42.547Z,102442.03
2022-12-17T01:57:03.013Z,102439.38
2022-12-17T01:59:25.547Z,102440.06
2022-12-17T02:01:46.017Z,102446.78
2022-12-17T02:04:06.180Z,102451.63
2022-12-17T02:06:32.136Z,102452.31
2022-12-17T02:09:19.749Z,102446.09
2022-12-17T02:12:21.679Z,102441.56
2022-12-17T02:15:07.444Z,102448.28
2022-12-17T02:17:32.702Z,102438.69
2022-12-17T02:20:06.042Z,102440.38
2022-12-17T02:22:38.618Z,102436.91
2022-12-17T02:25:11.133Z,102447.09
2022-12-17T02:27:32.471Z,102441.75
2022-12-17T02:30:02.964Z,102438.97
2022-12-17T02:32:24.883Z,102440.66
2022-12-17T02:34:44.649Z,102448.25
2022-12-17T02:37:04.430Z,102444.69
2022-12-17T02:39:24.132Z,102448.06
2022-12-17T02:41:52.559Z,102448.84
2022-12-17T02:44:14.940Z,102444.50
2022-12-17T02:46:36.182Z,102457.25
2022-12-17T02:48:56.486Z,102459.56
2022-12-17T02:51:17.768Z,102455.13
2022-12-17T02:53:46.085Z,102461.84
2022-12-17T02:56:06.522Z,102464.41
2022-12-17T02:58:26.471Z,102468.56
2022-12-17T03:00:46.281Z,102483.88
2022-12-17T03:03:06.193Z,102474.28
2022-12-17T03:05:44.649Z,102479.31
2022-12-17T03:08:05.332Z,102480.00
2022-12-17T03:10:25.654Z,102477.44
2022-12-17T03:12:45.561Z,102477.22
2022-12-17T03:15:05.478Z,102484.03
2022-12-17T03:17:25.221Z,102473.56
2022-12-17T03:19:44.979Z,102477.69
2022-12-17T03:22:05.715Z,102490.44
2022-12-17T03:24:26.046Z,102488.66
2022-12-17T03:26:45.915Z,102492.91
2022-12-17T03:29:06.229Z,102497.94
2022-12-17T03:31:26.083Z,102492.59
2022-12-17T03:33:49.120Z,102488.25
2022-12-17T03:36:11.945Z,102493.38
2022-12-17T03:38:32.336Z,102492.38
2022-12-17T03:40:52.115Z,102489.72
2022-12-17T03:43:11.974Z,102482.69
2022-12-17T03:45:31.710Z,102477.31
2022-12-17T03:48:05.332Z,102485.81
2022-12-17T03:50:26.158Z,102483.25
2022-12-17T03:52:45.872Z,102482.34
2022-12-17T03:55:05.697Z,102486.59
2022-12-17T03:57:25.502Z,102488.16
2022-12-17T03:59:45.463Z,102483.72
2022-12-17T04:02:05.446Z,102487.84
2022-12-17T04:04:25.690Z,102487.75
2022-12-17T04:06:45.566Z,102499.78
2022-12-17T04:09:05.366Z,102508.06
2022-12-17T04:11:25.766Z,102504.50
2022-12-17T04:13:45.904Z,102503.41
2022-12-17T04:16:06.566Z,102507.66
2022-12-17T04:18:26.689Z,102511.00
2022-12-17T04:20:46.498Z,102512.56
2022-12-17T04:23:06.381Z,102510.78
2022-12-17T04:25:26.813Z,102514.91
2022-12-17T04:27:46.616Z,102507.13
2022-12-17T04:30:06.519Z,102504.34
2022-12-17T04:32:28.225Z,102514.38
2022-12-17T04:34:50.094Z,102513.28
2022-12-17T04:37:10.221Z,102514.38
2022-12-17T04:39:30.175Z,102510.56
2022-12-17T04:41:50.568Z,102520.16
2022-12-17T04:44:10.379Z,102520.25
2022-12-17T04:46:30.518Z,102517.91
2022-12-17T04:48:50.748Z,102524.34
2022-12-17T04:51:11.695Z,102532.38
2022-12-17T04:53:31.662Z,102529.25
2022-12-17T04:55:51.733Z,102529.34
2022-12-17T04:58:11.507Z,102528.34
2022-12-17T05:00:32.248Z,102527.47
2022-12-17T05:02:52.154Z,102528.25
2022-12-17T05:05:12.136Z,102529.03
2022-12-17T05:07:31.901Z,102529.03
2022-12-17T05:09:51.664Z,102530.81
2022-12-17T05:12:11.400Z,102517.19
2022-12-17T05:14:34.637Z,102531.03
2022-12-17T05:16:54.956Z,102522.97
2022-12-17T05:19:14.799Z,102529.22
2022-12-17T05:21:35.026Z,102518.38
2022-12-17T05:23:54.747Z,102516.00
2022-12-17T05:26:32.405Z,102518.69
2022-12-17T05:28:52.154Z,102516.13
2022-12-17T05:31:13.606Z,102520.47
2022-12-17T05:33:34.051Z,102526.38
2022-12-17T05:35:54.143Z,102532.53
2022-12-17T05:38:13.896Z,102532.53
2022-12-17T05:40:34.241Z,102534.09
2022-12-17T05:42:54.039Z,102531.63
2022-12-17T05:45:13.832Z,102530.75
2022-12-17T05:47:33.699Z,102529.16
2022-12-17T05:49:53.496Z,102538.19
2022-12-17T05:52:16.822Z,102540.06
2022-12-17T05:54:36.616Z,102537.41
2022-12-17T05:56:56.950Z,102542.31
2022-12-17T05:59:17.275Z,102534.72
2022-12-17T06:01:37.176Z,102537.50
2022-12-17T06:03:57.368Z,102543.06
2022-12-17T06:06:17.602Z,102545.81
2022-12-17T06:08:37.460Z,102548.41
2022-12-17T06:10:57.449Z,102553.84
2022-12-17T06:13:17.320Z,102552.31
2022-12-17T06:15:37.290Z,102556.75
2022-12-17T06:17:57.316Z,102561.91
2022-12-17T06:20:17.268Z,102567.13
2022-12-17T06:22:37.235Z,102571.28
2022-12-17T06:24:57.117Z,102572.06
2022-12-17T06:27:17.445Z,102579.78
2022-12-17T06:29:37.319Z,102575.28
2022-12-17T06:31:57.215Z,102580.66
2022-12-17T06:34:17.355Z,102587.38
2022-12-17T06:36:37.124Z,102585.56
2022-12-17T06:38:56.804Z,102582.25
2022-12-17T06:41:19.637Z,102592.63
2022-12-17T06:43:39.531Z,102594.41
2022-12-17T06:46:00.375Z,102594.50
2022-12-17T06:48:25.473Z,102600.97
2022-12-17T06:50:45.419Z,102596.06
2022-12-17T06:53:05.416Z,102603.22
2022-12-17T06:55:25.684Z,102602.44
2022-12-17T06:57:50.379Z,102610.13
2022-12-17T07:00:10.838Z,102609.81
2022-12-17T07:02:31.257Z,102619.84
2022-12-17T07:04:51.085Z,102620.97
2022-12-17T07:07:10.898Z,102614.84
2022-12-17T07:09:31.047Z,102627.69
2022-12-17T07:11:50.942Z,102621.66
2022-12-17T07:14:10.918Z,102625.91
2022-12-17T07:16:30.737Z,102640.66
2022-12-17T07:18:51.065Z,102636.41
2022-12-17T07:21:12.567Z,102640.53
2022-12-17T07:23:32.731Z,102644.78
2022-12-17T07:25:52.699Z,102651.03
2022-12-17T07:28:15.331Z,102658.06
2022-12-17T07:30:35.630Z,102658.84
2022-12-17T07:32:55.416Z,102662.41
2022-12-17T07:35:15.677Z,102665.88
2022-12-17T07:37:37.115Z,102663.50
2022-12-17T07:39:57.210Z,102670.66
2022-12-17T07:42:17.019Z,102663.94
2022-12-17T07:44:37.241Z,102669.88
2022-12-17T07:46:57.039Z,102681.03
2022-12-17T07:49:19.213Z,102685.50
2022-12-17T07:51:42.842Z,102686.59
2022-12-17T07:54:02.542Z,102686.69
2022-12-17T07:56:22.988Z,102683.56
2022-12-17T07:58:42.868Z,102683.75
2022-12-17T08:01:06.373Z,102683.88
2022-12-17T08:03:26.708Z,102684.75
2022-12-17T08:05:46.883Z,102685.84
2022-12-17T08:08:07.193Z,102691.00
2022-12-17T08:10:27.380Z,102694.47
2022-12-17T08:12:47.235Z,102701.50
2022-12-17T08:15:07.697Z,102703.84
2022-12-17T08:17:27.472Z,102709.09
2022-12-17T08:19:47.764Z,102714.44
2022-12-17T08:22:08.031Z,102719.94
2022-12-17T08:24:27.836Z,102714.91
2022-12-17T08:26:48.513Z,102719.06
2022-12-17T08:29:08.731Z,102720.72
2022-12-17T08:31:29.124Z,102722.03
2022-12-17T08:33:49.078Z,102731.97
2022-12-17T08:36:12.889Z,102733.22
2022-12-17T08:38:33.136Z,102732.06
2022-12-17T08:40:53.076Z,102738.88
2022-12-17T08:43:16.697Z,102741.63
2022-12-17T08:45:36.615Z,102733.91
2022-12-17T08:48:00.595Z,102732.44
2022-12-17T08:50:24.811Z,102744.81
2022-12-17T08:52:44.719Z,102755.22
2022-12-17T08:55:04.493Z,102742.47
2022-12-17T08:57:31.354Z,102756.00
2022-12-17T08:59:52.172Z,102757.00
2022-12-17T09:02:12.059Z,102752.06
2022-12-17T09:04:32.485Z,102757.31
2022-12-17T09:06:52.174Z,102758.41
2022-12-17T09:09:12.229Z,102761.00
2022-12-17T09:11:32.909Z,102764.44
2022-12-17T09:13:53.484Z,102757.53
2022-12-17T09:16:14.229Z,102759.31
2022-12-17T09:18:37.964Z,102758.75
2022-12-17T09:20:58.357Z,102760.53
2022-12-17T09:23:18.620Z,102762.44
2022-12-17T09:25:38.612Z,102771.16
2022-12-17T09:27:59.089Z,102766.09
2022-12-17T09:30:18.762Z,102774.22
2022-12-17T09:32:38.662Z,102772.66
2022-12-17T09:34:58.631Z,102763.47
2022-12-17T09:37:18.641Z,102772.84
2022-12-17T09:39:38.675Z,102775.34
2022-12-17T09:42:09.685Z,102778.78
2022-12-17T09:44:48.075Z,102774.75
2022-12-17T09:47:21.560Z,102765.53
2022-12-17T09:49:47.252Z,102772.88
2022-12-17T09:52:07.308Z,102769.53
2022-12-17T09:55:00.960Z,102776.06
2022-12-17T09:57:21.737Z,102779.88
2022-12-17T09:59:52.639Z,102778.41
2022-12-17T10:02:12.643Z,102772.34
2022-12-17T10:04:54.295Z,102774.13
2022-12-17T10:07:18.553Z,102773.34
2022-12-17T10:09:52.598Z,102775.44
2022-12-17T10:12:12.871Z,102776.91
2022-12-17T10:14:42.137Z,102775.31
2022-12-17T10:17:11.393Z,102784.44
2022-12-17T10:19:49.178Z,102788.63
2022-12-17T10:22:10.913Z,102785.75
2022-12-17T10:24:31.382Z,102783.25
2022-12-17T10:26:52.856Z,102784.28
2022-12-17T10:29:33.704Z,102790.53
2022-12-17T10:31:53.505Z,102783.09
2022-12-17T10:34:15.838Z,102777.63
2022-12-17T10:36:40.194Z,102776.16
2022-12-17T10:39:00.194Z,102770.88
2022-12-17T10:41:23.051Z,102767.72
2022-12-17T10:43:47.703Z,102777.63
2022-12-17T10:46:15.845Z,102773.44
2022-12-17T10:48:36.601Z,102775.34
2022-12-17T10:50:59.831Z,102778.09
2022-12-17T10:53:21.329Z,102783.88
2022-12-17T10:55:47.330Z,102782.28
2022-12-17T10:58:10.538Z,102780.69
2022-12-17T11:00:36.429Z,102789.50
2022-12-17T11:02:56.708Z,102783.75
2022-12-17T11:05:17.113Z,102783.03
2022-12-17T11:07:45.798Z,102782.25
2022-12-17T11:10:10.211Z,102790.25
2022-12-17T11:12:33.906Z,102795.66
2022-12-17T11:15:03.449Z,102789.25
2022-12-17T11:17:29.217Z,102787.94
2022-12-17T11:20:24.279Z,102788.75
2022-12-17T11:23:01.111Z,102795.97
2022-12-17T11:25:26.500Z,102796.84
2022-12-17T11:27:51.742Z,102794.88
2022-12-17T11:30:12.107Z,102803.34
2022-12-17T11:32:58.394Z,102802.81
2022-12-17T11:35:40.244Z,102796.84
2022-12-17T11:38:11.379Z,102794.28
2022-12-17T11:40:31.326Z,102789.00
2022-12-17T11:42:58.543Z,102785.44
2022-12-17T11:45:35.120Z,102789.38
2022-12-17T11:48:27.653Z,102789.28
2022-12-17T11:51:01.933Z,102787.31
2022-12-17T11:53:44.758Z,102789.28
2022-12-17T11:56:16.742Z,102789.38
2022-12-17T11:58:46.419Z,102794.72
2022-12-17T12:01:35.559Z,102792.31
2022-12-17T12:04:28.102Z,102791.53
2022-12-17T12:07:04.003Z,102796.81
2022-12-17T12:09:27.059Z,102793.34
2022-12-17T12:11:53.980Z,102790.53
2022-12-17T12:14:28.114Z,102793.75
2022-12-17T12:17:03.587Z,102795.88
2022-12-17T12:19:47.308Z,102798.16
2022-12-17T12:22:09.996Z,102802.25
2022-12-17T12:24:56.194Z,102810.00
2022-12-17T12:27:42.620Z,102809.53
2022-12-17T12:30:20.655Z,102817.09
2022-12-17T12:32:53.484Z,102812.81
2022-12-17T12:35:16.425Z,102811.75
2022-12-17T12:37:39.426Z,102811.56
2022-12-17T12:40:10.353Z,102812.94
2022-12-17T12:42:41.172Z,102810.84
2022-12-17T12:45:10.289Z,102813.63
2022-12-17T12:47:41.637Z,102815.63
2022-12-17T12:50:13.480Z,102818.22
2022-12-17T12:52:39.237Z,102818.88
2022-12-17T12:55:05.369Z,102811.75
2022-12-17T12:57:45.690Z,102812.16
2022-12-17T13:00:08.004Z,102814.53
2022-12-17T13:02:45.563Z,102810.06
2022-12-17T13:05:12.860Z,102813.34
2022-12-17T13:07:40.512Z,102822.50
2022-12-17T13:09:50.899Z,102813.84
2022-12-17T13:12:04.580Z,102814.03
2022-12-17T13:14:15.513Z,102810.28
2022-12-17T13:16:52.272Z,102813.06
2022-12-17T13:19:17.386Z,102814.03
2022-12-17T13:21:18.765Z,102816.63
2022-12-17T13:23:28.735Z,102816.91
2022-12-17T13:25:30.379Z,102812.75
2022-12-17T13:27:41.831Z,102813.06
2022-12-17T13:29:43.358Z,102813.06
2022-12-17T13:32:18.023Z,102814.75
2022-12-17T13:34:42.987Z,102811.25
2022-12-17T13:37:26.345Z,102806.06
2022-12-17T13:39:48.707Z,102808.97
2022-12-17T13:41:54.873Z,102818.78
2022-12-17T13:43:59.428Z,102813.09
2022-12-17T13:46:00.977Z,102813.19
2022-12-17T13:48:02.615Z,102811.50
2022-12-17T13:50:36.642Z,102812.72
2022-12-17T13:52:38.442Z,102811.47
2022-12-17T13:54:39.982Z,102814.03
2022-12-17T13:56:41.600Z,102806.31
2022-12-17T13:58:43.183Z,102811.25
2022-12-17T14:00:44.669Z,102814.75
2022-12-17T14:02:46.320Z,102813.06
2022-12-17T14:04:52.946Z,102813.16
2022-12-17T14:06:57.939Z,102808.00
2022-12-17T14:08:59.835Z,102813.44
2022-12-17T14:11:20.867Z,102814.03
2022-12-17T14:13:22.365Z,102812.44
2022-12-17T14:15:26.625Z,102816.28
2022-12-17T14:17:49.558Z,102813.44
2022-12-17T14:20:04.099Z,102819.28
2022-12-17T14:22:05.847Z,102811.56
2022-12-17T14:24:11.032Z,102817.50
2022-12-17T14:26:13.390Z,102808.78
2022-12-17T14:28:24.986Z,102809.47
2022-12-17T14:31:02.520Z,102824.03
2022-12-17T14:33:01.419Z,102834.38
2022-12-17T14:35:03.986Z,102823.84
2022-12-17T14:37:05.556Z,102830.50
2022-12-17T14:39:28.851Z,102837.16
2022-12-17T14:41:56.491Z,102836.09
2022-12-17T14:43:59.750Z,102833.41
2022-12-17T14:46:20.054Z,102834.31
2022-12-17T14:48:45.587Z,102833.69
2022-12-17T14:50:55.074Z,102826.25
2022-12-17T14:52:58.879Z,102838.44
2022-12-17T14:55:00.397Z,102835.97
2022-12-17T14:57:05.608Z,102835.78
2022-12-17T14:59:30.513Z,102831.41
2022-12-17T15:01:32.294Z,102843.22
2022-12-17T15:03:39.040Z,102839.84
2022-12-17T15:05:40.582Z,102845.72
2022-12-17T15:07:42.538Z,102840.53
2022-12-17T15:09:44.194Z,102839.06
2022-12-17T15:11:45.671Z,102844.59
2022-12-17T15:13:50.318Z,102848.28
2022-12-17T15:15:55.981Z,102847.34
2022-12-17T15:17:59.227Z,102848.84
2022-12-17T15:20:00.761Z,102852.84
2022-12-17T15:22:03.490Z,102852.25
2022-12-17T15:24:06.884Z,102848.50
2022-12-17T15:26:10.065Z,102843.25
2022-12-17T15:28:12.207Z,102836.00
2022-12-17T15:30:16.339Z,102834.41
2022-12-17T15:32:20.029Z,102841.16
2022-12-17T15:34:21.811Z,102843.72
2022-12-17T15:36:23.378Z,102842.94
2022-12-17T15:38:24.862Z,102838.47
2022-12-17T15:40:26.309Z,102839.88
2022-12-17T15:42:46.608Z,102850.88
2022-12-17T15:44:48.042Z,102850.09
2022-12-17T15:46:49.724Z,102849.19
2022-12-17T15:48:51.397Z,102848.81
2022-12-17T15:50:52.873Z,102849.72
2022-12-17T15:52:54.318Z,102848.81
2022-12-17T15:54:55.754Z,102860.81
2022-12-17T15:56:58.184Z,102859.22
2022-12-17T15:58:59.659Z,102863.00
2022-12-17T16:01:01.175Z,102867.88
2022-12-17T16:03:02.819Z,102865.84
2022-12-17T16:05:05.089Z,102869.53
2022-12-17T16:07:06.581Z,102874.00
2022-12-17T16:09:08.323Z,102876.50
2022-12-17T16:11:11.917Z,102877.16
2022-12-17T16:13:13.417Z,102880.44
2022-12-17T16:15:15.100Z,102874.88
2022-12-17T16:17:16.628Z,102877.25
2022-12-17T16:19:18.501Z,102875.28
2022-12-17T16:21:20.001Z,102880.63
2022-12-17T16:23:21.442Z,102882.03
2022-12-17T16:25:22.901Z,102875.88
2022-12-17T16:27:24.354Z,102883.41
2022-12-17T16:29:25.805Z,102882.50
2022-12-17T16:31:27.277Z,102886.06
2022-12-17T16:33:36.927Z,102888.75
2022-12-17T16:35:38.366Z,102888.16
2022-12-17T16:37:39.797Z,102892.31
2022-12-17T16:39:41.286Z,102891.34
2022-12-17T16:41:42.848Z,102887.97
2022-12-17T16:43:44.814Z,102886.97
2022-12-17T16:45:48.839Z,102879.13
2022-12-17T16:47:50.702Z,102881.63
2022-12-17T16:49:52.169Z,102884.19
2022-12-17T16:51:54.875Z,102887.56
2022-12-17T16:53:57.646Z,102887.88
2022-12-17T16:55:59.070Z,102887.56
2022-12-17T16:58:00.505Z,102894.78
2022-12-17T17:00:02.039Z,102894.50
2022-12-17T17:02:03.624Z,102888.66
2022-12-17T17:04:07.938Z,102888.44
2022-12-17T17:06:10.292Z,102889.13
2022-12-17T17:08:11.732Z,102890.69
2022-12-17T17:10:13.277Z,102887.09
2022-12-17T17:12:14.791Z,102890.28
2022-12-17T17:14:16.681Z,102889.88
2022-12-17T17:16:20.443Z,102902.06
2022-12-17T17:18:24.790Z,102902.44
2022-12-17T17:20:26.499Z,102903.81
2022-12-17T17:22:27.913Z,102903.13
2022-12-17T17:24:29.531Z,102901.81
2022-12-17T17:26:32.920Z,102907.88
2022-12-17T17:28:34.582Z,102912.44
2022-12-17T17:30:36.125Z,102913.91
2022-12-17T17:32:37.629Z,102927.25
2022-12-17T17:34:39.697Z,102922.22
2022-12-17T17:36:41.972Z,102930.06
2022-12-17T17:38:43.528Z,102916.59
2022-12-17T17:40:44.961Z,102915.50
2022-12-17T17:42:51.532Z,102919.34
2022-12-17T17:44:53.401Z,102913.75
2022-12-17T17:46:54.886Z,102924.50
2022-12-17T17:49:01.321Z,102925.66
2022-12-17T17:51:08.919Z,102916.94
2022-12-17T17:53:10.435Z,102925.66
2022-12-17T17:55:11.892Z,102924.75
2022-12-17T17:57:13.430Z,102935.63
2022-12-17T17:59:19.980Z,102931.63
2022-12-17T18:01:33.059Z,102939.25
2022-12-17T18:03:34.728Z,102944.28
2022-12-17T18:05:41.805Z,102941.38
2022-12-17T18:07:43.385Z,102946.72
2022-12-17T18:09:44.810Z,102943.25
2022-12-17T18:11:46.523Z,102943.38
2022-12-17T18:13:57.004Z,102945.16
2022-12-17T18:16:01.885Z,102946.41
2022-12-17T18:18:03.473Z,102951.34
2022-12-17T18:20:05.573Z,102947.44
2022-12-17T18:22:07.007Z,102951.25
2022-12-17T18:24:15.021Z,102954.41
2022-12-17T18:26:21.064Z,102955.84
2022-12-17T18:28:22.485Z,102949.91
2022-12-17T18:30:23.979Z,102945.13
2022-12-17T18:32:25.705Z,102948.69
2022-12-17T18:34:27.757Z,102947.00
2022-12-17T18:36:32.185Z,102951.38
2022-12-17T18:38:33.656Z,102952.16
2022-12-17T18:40:36.158Z,102954.72
2022-12-17T18:42:56.000Z,102959.78
2022-12-17T18:44:57.456Z,102949.38
2022-12-17T18:46:59.227Z,102952.47
2022-12-17T18:49:03.920Z,102947.13
2022-12-17T18:51:05.971Z,102957.97
2022-12-17T18:53:07.423Z,102956.09
2022-12-17T18:55:11.788Z,102955.97
2022-12-17T18:57:13.517Z,102955.88
2022-12-17T18:59:17.287Z,102954.84
2022-12-17T19:01:30.395Z,102959.91
2022-12-17T19:03:32.681Z,102959.69
2022-12-17T19:05:34.130Z,102964.59
2022-12-17T19:07:35.622Z,102964.41
2022-12-17T19:09:39.333Z,102962.53
2022-12-17T19:11:43.679Z,102970.91
2022-12-17T19:13:46.126Z,102962.19
2022-12-17T19:15:47.582Z,102965.44
2022-12-17T19:17:50.883Z,102965.31
2022-12-17T19:19:52.310Z,102967.66
2022-12-17T19:21:59.661Z,102969.09
2022-12-17T19:24:04.501Z,102968.97
2022-12-17T19:26:11.950Z,102975.69
2022-12-17T19:28:13.406Z,102983.28
2022-12-17T19:30:14.957Z,102984.75
2022-12-17T19:32:16.415Z,102972.56
2022-12-17T19:34:19.063Z,102971.66
2022-12-17T19:36:26.655Z,102966.19
2022-12-17T19:38:29.679Z,102966.84
2022-12-17T19:40:31.142Z,102971.88
2022-12-17T19:42:37.383Z,102968.31
2022-12-17T19:44:39.307Z,102978.38
2022-12-17T19:46:41.705Z,102985.97
2022-12-17T19:48:48.485Z,102996.13
2022-12-17T19:51:00.188Z,102995.78
2022-12-17T19:53:01.620Z,102997.34
2022-12-17T19:55:03.356Z,102998.91
2022-12-17T19:57:04.980Z,103002.03
2022-12-17T19:59:07.855Z,103001.78
2022-12-17T20:01:18.172Z,102998.06
2022-12-17T20:03:19.771Z,103009.03
2022-12-17T20:05:21.443Z,103012.13
2022-12-17T20:07:22.923Z,103004.09
2022-12-17T20:09:24.441Z,102998.72
2022-12-17T20:11:36.155Z,102994.25
2022-12-17T20:13:37.755Z,102997.47
2022-12-17T20:15:39.214Z,102994.78
2022-12-17T20:17:40.645Z,103001.47
2022-12-17T20:19:43.545Z,102990.19
2022-12-17T20:21:45.645Z,103011.53
2022-12-17T20:23:48.586Z,103016.53
2022-12-17T20:25:50.034Z,103015.53
2022-12-17T20:27:51.510Z,103026.56
2022-12-17T20:29:53.193Z,103024.66
2022-12-17T20:31:55.893Z,103022.75
2022-12-17T20:33:58.704Z,103020.84
2022-12-17T20:36:09.005Z,103029.31
2022-12-17T20:38:10.434Z,103020.59
2022-12-17T20:40:12.223Z,103023.94
2022-12-17T20:42:13.666Z,103018.69
2022-12-17T20:44:15.503Z,103016.88
2022-12-17T20:46:19.342Z,103008.94
2022-12-17T20:48:22.200Z,103012.28
2022-12-17T20:50:23.670Z,103016.31
2022-12-17T20:52:25.506Z,103023.75
2022-12-17T20:54:27.069Z,103019.28
2022-12-17T20:56:31.657Z,103028.41
2022-12-17T20:58:33.398Z,103022.28
2022-12-17T21:00:34.981Z,103024.72
2022-12-17T21:02:36.827Z,103033.84
2022-12-17T21:04:38.397Z,103029.38
2022-12-17T21:06:44.877Z,103025.91
2022-12-17T21:08:50.909Z,103026.44
2022-12-17T21:10:56.467Z,103028.91
2022-12-17T21:13:16.623Z,103040.72
2022-12-17T21:15:18.693Z,103033.91
2022-12-17T21:17:20.196Z,103036.47
2022-12-17T21:19:21.747Z,103037.13
2022-12-17T21:21:26.608Z,103036.84
2022-12-17T21:23:29.462Z,103031.47
2022-12-17T21:25:30.996Z,103032.25
2022-12-17T21:27:33.457Z,103029.56
2022-12-17T21:29:34.901Z,103034.56
2022-12-17T21:31:41.808Z,103045.50
2022-12-17T21:33:43.616Z,103045.25
2022-12-17T21:35:45.411Z,103053.59
2022-12-17T21:37:46.892Z,103055.78
2022-12-17T21:39:49.105Z,103047.19
2022-12-17T21:42:09.374Z,103039.50
2022-12-17T21:44:13.074Z,103044.50
2022-12-17T21:46:15.594Z,103050.53
2022-12-17T21:48:17.122Z,103038.50
2022-12-17T21:50:18.748Z,103047.84
2022-12-17T21:52:20.411Z,103050.28
2022-12-17T21:54:21.869Z,103052.09
2022-12-17T21:56:23.827Z,103052.97
2022-12-17T21:58:25.587Z,103058.00
2022-12-17T22:00:27.149Z,103054.41
2022-12-17T22:02:29.043Z,103056.31
2022-12-17T22:04:30.657Z,103049.41
2022-12-17T22:06:42.024Z,103051.97
2022-12-17T22:08:47.691Z,103054.53
2022-12-17T22:10:49.691Z,103053.63
2022-12-17T22:13:10.234Z,103055.31
2022-12-17T22:15:12.116Z,103045.69
2022-12-17T22:17:14.673Z,103059.41
2022-12-17T22:19:22.328Z,103064.53
2022-12-17T22:21:24.306Z,103065.44
2022-12-17T22:23:26.007Z,103067.75
2022-12-17T22:25:27.846Z,103056.47
2022-12-17T22:27:30.332Z,103064.69
2022-12-17T22:29:50.203Z,103059.44
2022-12-17T22:32:09.904Z,103062.78
2022-12-17T22:34:34.907Z,103062.50
2022-12-17T22:38:30.683Z,103059.69
2022-12-17T22:44:28.445Z,103062.91
2022-12-17T22:44:36.892Z,103057.53
2022-12-17T22:44:43.223Z,103067.66
2022-12-17T22:46:25.466Z,103074.31
2022-12-17T22:48:27.405Z,103067.53
2022-12-17T22:50:37.473Z,103073.44
2022-12-17T22:52:51.144Z,103071.75
2022-12-17T22:54:52.975Z,103070.88
2022-12-17T22:57:24.181Z,103067.16
2022-12-17T22:59:18.585Z,103066.91
2022-12-17T23:01:23.218Z,103058.19
2022-12-17T23:03:25.093Z,103056.41
2022-12-17T23:05:28.212Z,103056.41
2022-12-17T23:07:31.977Z,103046.16
2022-12-17T23:09:33.695Z,103052.94
2022-12-17T23:11:35.202Z,103052.94
2022-12-17T23:13:37.512Z,103055.50
2022-12-17T23:15:39.359Z,103058.97
2022-12-17T23:17:42.070Z,103053.84
2022-12-17T23:19:43.558Z,103055.75
2022-12-17T23:21:45.016Z,103049.84
2022-12-17T23:23:46.786Z,103050.75
2022-12-17T23:25:48.262Z,103053.31
2022-12-17T23:27:50.573Z,103045.75
2022-12-17T23:29:52.074Z,103054.34
2022-12-17T23:31:53.494Z,103051.00
2022-12-17T23:33:55.262Z,103062.91
2022-12-17T23:36:09.274Z,103068.94
2022-12-17T23:38:10.714Z,103074.06
2022-12-17T23:40:13.325Z,103075.63
2022-12-17T23:42:14.794Z,103079.72
2022-12-17T23:44:16.232Z,103081.25
2022-12-17T23:46:19.232Z,103082.81
2022-12-17T23:48:20.963Z,103080.13
2022-12-17T23:50:22.429Z,103089.47
2022-12-17T23:52:23.869Z,103082.41
2022-12-17T23:54:25.409Z,103087.41
2022-12-17T23:56:28.193Z,103093.31
2022-12-17T23:58:29.605Z,103087.28
